Time;durP1;ratioP1;P1;durP2;ratioP2;P2;SDS_P1;SDS_P2;PMS_P1;PMS_P2;Temp;Humidity;BMP_temperature;BMP_pressure;BME280_temperature;BME280_humidity;BME280_pressure;Samples;Min_cycle;Max_cycle;Signal;HPM_P1;HPM_P2
2021/06/06 00:00:52;;;;;;;0.28;0.28;;;19.90;99.90;;;;;;5089116;28;20259;-71
2021/06/06 00:03:25;;;;;;;0.20;0.20;;;20.00;99.90;;;;;;5071290;28;20198;-71
2021/06/06 00:06:02;;;;;;;0.63;0.63;;;20.10;99.90;;;;;;5089124;28;20712;-71
2021/06/06 00:08:29;;;;;;;0.22;0.22;;;20.00;99.90;;;;;;5088419;28;20179;-71
2021/06/06 00:11:03;;;;;;;0.25;0.25;;;19.90;99.90;;;;;;5089103;28;20188;-71
2021/06/06 00:13:30;;;;;;;0.22;0.22;;;19.90;99.90;;;;;;5089010;28;20222;-71
2021/06/06 00:15:56;;;;;;;0.20;0.20;;;19.90;99.90;;;;;;5089110;28;20167;-71
2021/06/06 00:18:22;;;;;;;0.25;0.25;;;19.90;99.90;;;;;;5107110;28;20618;-70
2021/06/06 00:20:48;;;;;;;0.40;0.40;;;19.90;99.90;;;;;;5091103;28;20168;-71
2021/06/06 00:23:14;;;;;;;0.88;0.68;;;20.00;99.90;;;;;;5086993;28;20231;-71
2021/06/06 00:25:40;;;;;;;0.38;0.30;;;20.00;99.90;;;;;;5091782;28;20179;-71
2021/06/06 00:28:07;;;;;;;0.52;0.52;;;20.00;99.90;;;;;;5109097;28;20158;-71
2021/06/06 00:30:35;;;;;;;0.20;0.20;;;19.90;99.90;;;;;;5088708;28;20282;-71
2021/06/06 00:33:01;;;;;;;1.13;0.38;;;19.90;99.90;;;;;;5088733;28;20188;-71
2021/06/06 00:35:27;;;;;;;0.20;0.20;;;19.90;99.90;;;;;;5088794;28;20168;-71
2021/06/06 00:37:53;;;;;;;0.20;0.20;;;19.90;99.90;;;;;;5088783;28;20156;-71
2021/06/06 00:40:25;;;;;;;0.10;0.10;;;19.90;99.90;;;;;;5070547;28;20659;-71
2021/06/06 00:42:51;;;;;;;0.20;0.20;;;19.80;99.90;;;;;;5102122;28;20195;-70
2021/06/06 00:45:22;;;;;;;0.30;0.30;;;19.70;99.90;;;;;;5108806;28;20159;-71
2021/06/06 00:47:48;;;;;;;0.60;0.60;;;19.70;99.90;;;;;;5108922;28;20185;-71
2021/06/06 00:50:31;;;;;;;0.35;0.35;;;19.60;99.90;;;;;;5102288;28;20199;-71
2021/06/06 00:53:01;;;;;;;0.20;0.10;;;19.50;99.90;;;;;;5088466;28;20213;-70
2021/06/06 00:55:27;;;;;;;0.40;0.40;;;19.50;99.90;;;;;;5088527;28;20210;-71
2021/06/06 00:57:55;;;;;;;1.55;0.22;;;19.40;99.90;;;;;;5088512;28;20165;-70
2021/06/06 01:00:29;;;;;;;0.35;0.35;;;19.40;99.90;;;;;;5088416;28;20167;-70
2021/06/06 01:02:56;;;;;;;1.95;0.63;;;19.50;99.90;;;;;;5088365;28;20196;-70
2021/06/06 01:05:43;;;;;;;0.10;0.10;;;19.50;99.90;;;;;;5088188;28;20187;-71
2021/06/06 01:08:11;;;;;;;0.00;0.00;;;19.60;99.90;;;;;;5087902;28;20239;-71
2021/06/06 01:10:38;;;;;;;0.57;0.45;;;19.50;99.90;;;;;;5088152;28;20194;-71
2021/06/06 01:13:21;;;;;;;0.10;0.10;;;19.50;99.90;;;;;;5101505;28;20195;-71
2021/06/06 01:15:54;;;;;;;0.50;0.50;;;19.50;99.90;;;;;;5108533;28;20162;-71
2021/06/06 01:18:30;;;;;;;0.00;0.00;;;19.50;99.90;;;;;;5106436;28;20722;-71
2021/06/06 01:21:11;;;;;;;0.20;0.20;;;19.60;99.90;;;;;;5108270;28;20243;-71
2021/06/06 01:23:55;;;;;;;0.30;0.30;;;19.60;99.90;;;;;;5108289;28;20206;-71
2021/06/06 01:26:29;;;;;;;0.25;0.25;;;19.60;99.90;;;;;;5090235;28;20702;-71
2021/06/06 01:29:12;;;;;;;0.13;0.13;;;19.60;99.90;;;;;;5108293;28;20217;-70
2021/06/06 01:31:41;;;;;;;0.40;0.15;;;19.50;99.90;;;;;;5089887;28;20210;-70
2021/06/06 01:34:10;;;;;;;0.20;0.20;;;19.50;99.90;;;;;;5108211;28;20262;-71
2021/06/06 01:36:45;;;;;;;0.52;0.52;;;19.50;99.90;;;;;;5108268;28;20161;-71
2021/06/06 01:39:19;;;;;;;0.25;0.25;;;19.50;99.90;;;;;;5108242;28;20187;-71
2021/06/06 01:41:51;;;;;;;0.22;0.22;;;19.40;99.90;;;;;;5108116;28;20197;-71
2021/06/06 01:44:23;;;;;;;0.50;0.30;;;19.30;99.90;;;;;;5090026;28;20179;-71
2021/06/06 01:46:58;;;;;;;3.67;0.68;;;19.30;99.90;;;;;;5107901;28;20566;-71
2021/06/06 01:49:26;;;;;;;0.55;0.55;;;19.30;99.90;;;;;;5108041;28;20225;-70
2021/06/06 01:51:56;;;;;;;0.10;0.10;;;19.30;99.90;;;;;;5108000;28;20218;-70
2021/06/06 01:54:27;;;;;;;0.10;0.10;;;19.20;99.90;;;;;;5089333;28;20175;-70
2021/06/06 01:56:54;;;;;;;0.40;0.40;;;19.30;99.90;;;;;;5107656;28;20198;-70
2021/06/06 01:59:32;;;;;;;0.20;0.20;;;19.30;99.90;;;;;;5107973;28;20151;-71
2021/06/06 02:01:58;;;;;;;0.30;0.30;;;19.40;99.90;;;;;;5108081;28;20617;-70
2021/06/06 02:04:25;;;;;;;0.40;0.40;;;19.40;99.90;;;;;;5107978;28;20166;-70
2021/06/06 02:07:00;;;;;;;0.30;0.30;;;19.40;99.90;;;;;;5105539;28;20193;-70
2021/06/06 02:09:30;;;;;;;0.10;0.10;;;19.40;99.90;;;;;;5069592;28;20171;-70
2021/06/06 02:12:01;;;;;;;0.38;0.38;;;19.40;99.90;;;;;;5087495;28;20195;-70
2021/06/06 02:14:37;;;;;;;0.10;0.10;;;19.50;99.90;;;;;;5087714;28;20152;-70
2021/06/06 02:17:08;;;;;;;0.00;0.00;;;19.50;99.90;;;;;;5069538;28;20175;-70
2021/06/06 02:19:36;;;;;;;0.35;0.35;;;19.50;99.90;;;;;;5087589;28;20157;-70
2021/06/06 02:22:07;;;;;;;0.52;0.52;;;19.50;99.90;;;;;;5069388;28;20234;-70
2021/06/06 02:24:34;;;;;;;0.15;0.15;;;19.50;99.90;;;;;;5087466;28;20156;-70
2021/06/06 02:27:20;;;;;;;0.08;0.08;;;19.50;99.90;;;;;;5087495;28;20621;-70
2021/06/06 02:29:55;;;;;;;0.15;0.15;;;19.60;99.90;;;;;;5069445;28;20230;-70
2021/06/06 02:32:43;;;;;;;1.50;0.30;;;19.60;99.90;;;;;;5089553;28;20206;-70
2021/06/06 02:35:26;;;;;;;0.38;0.38;;;19.70;99.90;;;;;;5090995;28;20170;-70
2021/06/06 02:38:11;;;;;;;0.10;0.10;;;19.70;99.90;;;;;;5090968;28;20160;-70
2021/06/06 02:41:02;;;;;;;0.30;0.30;;;19.70;99.90;;;;;;5090988;28;20181;-70
2021/06/06 02:43:36;;;;;;;0.35;0.35;;;19.60;99.90;;;;;;5090757;28;20200;-70
2021/06/06 02:46:04;;;;;;;0.00;0.00;;;19.60;99.90;;;;;;5090658;28;20238;-70
2021/06/06 02:48:36;;;;;;;0.00;0.00;;;19.60;99.90;;;;;;5072663;28;20192;-70
2021/06/06 02:51:07;;;;;;;0.22;0.22;;;19.60;99.90;;;;;;5090518;28;20192;-70
2021/06/06 02:53:59;;;;;;;0.80;0.40;;;19.50;99.90;;;;;;5090497;28;20191;-68
2021/06/06 02:56:32;;;;;;;0.20;0.20;;;19.50;99.90;;;;;;5072646;28;20164;-68
2021/06/06 02:59:05;;;;;;;0.15;0.15;;;19.50;99.90;;;;;;5090560;28;20152;-68
2021/06/06 03:01:38;;;;;;;0.17;0.17;;;19.50;99.90;;;;;;5091147;28;20168;-68
2021/06/06 03:04:10;;;;;;;0.20;0.20;;;19.50;99.90;;;;;;5110546;28;20246;-68
2021/06/06 03:06:50;;;;;;;0.10;0.10;;;19.50;99.90;;;;;;5110464;28;20191;-69
2021/06/06 03:09:17;;;;;;;1.55;0.77;;;19.50;99.90;;;;;;5072293;28;20176;-68
2021/06/06 03:11:46;;;;;;;0.30;0.10;;;19.50;99.90;;;;;;5071993;28;20211;-68
2021/06/06 03:14:20;;;;;;;0.00;0.00;;;19.50;99.90;;;;;;5078294;28;20191;-68
2021/06/06 03:17:03;;;;;;;0.40;0.28;;;19.50;99.90;;;;;;5092723;28;20172;-68
2021/06/06 03:19:33;;;;;;;0.05;0.05;;;19.50;99.90;;;;;;5089955;28;20205;-69
2021/06/06 03:22:01;;;;;;;0.20;0.20;;;19.50;99.90;;;;;;5087392;28;20242;-69
2021/06/06 03:24:34;;;;;;;0.00;0.00;;;19.50;99.90;;;;;;5092048;28;20178;-68
2021/06/06 03:27:01;;;;;;;0.10;0.10;;;19.40;99.90;;;;;;5110344;28;20156;-69
2021/06/06 03:29:32;;;;;;;0.15;0.15;;;19.50;99.90;;;;;;5110105;28;20202;-69
2021/06/06 03:32:03;;;;;;;0.13;0.13;;;19.50;99.90;;;;;;5091814;28;20207;-68
2021/06/06 03:34:30;;;;;;;0.20;0.20;;;19.50;99.90;;;;;;5092064;28;20190;-69
2021/06/06 03:36:56;;;;;;;0.28;0.20;;;19.50;99.90;;;;;;5110258;28;20191;-68
2021/06/06 03:39:27;;;;;;;0.25;0.25;;;19.30;99.90;;;;;;5110095;28;20162;-69
2021/06/06 03:41:58;;;;;;;0.20;0.20;;;19.10;99.90;;;;;;5091748;28;20294;-68
2021/06/06 03:44:26;;;;;;;0.22;0.22;;;19.00;99.90;;;;;;5108647;28;20239;-68
2021/06/06 03:46:55;;;;;;;0.50;0.50;;;18.90;99.90;;;;;;5109772;28;20230;-69
2021/06/06 03:49:22;;;;;;;1.55;0.75;;;18.80;99.90;;;;;;5103126;28;20194;-69
2021/06/06 03:51:48;;;;;;;0.45;0.45;;;18.80;99.90;;;;;;5071431;28;20215;-69
2021/06/06 03:54:17;;;;;;;0.25;0.25;;;18.70;99.90;;;;;;5089569;28;20251;-68
2021/06/06 03:56:45;;;;;;;3.88;0.60;;;18.70;99.90;;;;;;5071442;28;20226;-69
2021/06/06 03:59:12;;;;;;;0.20;0.20;;;18.60;99.90;;;;;;5071391;28;20178;-69
2021/06/06 04:01:39;;;;;;;0.45;0.45;;;18.70;99.90;;;;;;5089322;28;20167;-68
2021/06/06 04:04:05;;;;;;;0.10;0.10;;;18.70;99.90;;;;;;5089308;28;20306;-69
2021/06/06 04:06:31;;;;;;;0.40;0.40;;;18.70;99.90;;;;;;5089318;28;20156;-68
2021/06/06 04:08:58;;;;;;;0.52;0.52;;;18.60;99.90;;;;;;5087204;28;21014;-69
2021/06/06 04:11:23;;;;;;;0.98;0.98;;;18.50;99.90;;;;;;5091684;28;20187;-69
2021/06/06 04:13:51;;;;;;;0.20;0.20;;;18.40;99.90;;;;;;5091235;28;20188;-69
2021/06/06 04:16:18;;;;;;;0.38;0.38;;;18.30;99.90;;;;;;5109447;28;20959;-68
2021/06/06 04:18:44;;;;;;;1.08;1.08;;;18.20;99.90;;;;;;5091041;28;20163;-68
2021/06/06 04:21:15;;;;;;;0.15;0.15;;;18.10;99.90;;;;;;5109172;28;20163;-69
2021/06/06 04:23:41;;;;;;;0.88;0.88;;;18.10;99.90;;;;;;5090830;28;20206;-69
2021/06/06 04:26:07;;;;;;;0.50;0.50;;;18.10;99.90;;;;;;5109208;28;20164;-69
2021/06/06 04:28:34;;;;;;;0.30;0.30;;;18.10;99.90;;;;;;5108894;28;20155;-69
2021/06/06 04:31:00;;;;;;;0.90;0.90;;;18.10;99.90;;;;;;5090704;28;20195;-69
2021/06/06 04:33:27;;;;;;;1.95;0.85;;;18.10;99.90;;;;;;5090722;28;20187;-69
2021/06/06 04:35:53;;;;;;;0.55;0.55;;;18.20;99.90;;;;;;5108856;28;20190;-69
2021/06/06 04:38:24;;;;;;;1.55;0.70;;;18.20;99.90;;;;;;5090838;28;20175;-68
2021/06/06 04:40:51;;;;;;;0.52;0.30;;;18.20;99.90;;;;;;5108986;28;20174;-68
2021/06/06 04:43:17;;;;;;;0.85;0.85;;;18.30;99.90;;;;;;5108882;28;20203;-68
2021/06/06 04:45:43;;;;;;;0.40;0.30;;;18.30;99.90;;;;;;5082865;28;20618;-68
2021/06/06 04:48:23;;;;;;;2.45;1.20;;;18.30;99.90;;;;;;5067131;28;20210;-68
2021/06/06 04:50:50;;;;;;;0.30;0.30;;;18.30;99.90;;;;;;5068282;28;20195;-69
2021/06/06 04:53:17;;;;;;;0.52;0.30;;;18.40;99.90;;;;;;5068206;28;20696;-68
2021/06/06 04:55:44;;;;;;;0.20;0.20;;;18.40;99.90;;;;;;5066575;28;20176;-68
2021/06/06 04:58:15;;;;;;;0.63;0.63;;;18.50;99.90;;;;;;5068288;28;20287;-68
2021/06/06 05:00:42;;;;;;;0.28;0.28;;;18.60;99.90;;;;;;5068205;28;20164;-68
2021/06/06 05:03:10;;;;;;;2.75;0.80;;;18.70;99.90;;;;;;5067949;28;20188;-68
2021/06/06 05:05:36;;;;;;;1.75;1.05;;;18.70;99.90;;;;;;5068154;28;20161;-68
2021/06/06 05:08:03;;;;;;;0.73;0.73;;;18.90;99.90;;;;;;5056123;28;20382;-68
2021/06/06 05:10:32;;;;;;;1.92;1.10;;;19.00;99.90;;;;;;5048081;28;20193;-68
2021/06/06 05:12:58;;;;;;;0.63;0.63;;;19.00;99.90;;;;;;5048094;28;20189;-68
2021/06/06 05:15:25;;;;;;;2.17;0.73;;;19.00;99.90;;;;;;5048066;28;20188;-68
2021/06/06 05:17:53;;;;;;;0.25;0.25;;;19.00;99.90;;;;;;5047966;28;20161;-68
2021/06/06 05:20:24;;;;;;;0.40;0.40;;;19.10;99.90;;;;;;5046583;28;20199;-68
2021/06/06 05:22:51;;;;;;;1.05;1.00;;;19.10;99.90;;;;;;5047752;28;20205;-69
2021/06/06 05:25:18;;;;;;;0.77;0.77;;;19.10;99.90;;;;;;5051999;28;20177;-69
2021/06/06 05:27:44;;;;;;;0.30;0.28;;;19.10;99.90;;;;;;5067858;28;20164;-68
2021/06/06 05:30:14;;;;;;;0.20;0.20;;;19.00;99.90;;;;;;5067713;28;20192;-68
2021/06/06 05:32:41;;;;;;;0.20;0.20;;;18.90;99.90;;;;;;5066168;28;20196;-68
2021/06/06 05:35:08;;;;;;;0.32;0.32;;;18.90;99.90;;;;;;5067716;28;20622;-68
2021/06/06 05:37:34;;;;;;;0.13;0.13;;;18.80;99.90;;;;;;5067769;28;20163;-69
2021/06/06 05:39:59;;;;;;;0.40;0.40;;;18.90;99.90;;;;;;5067773;28;20153;-69
2021/06/06 05:42:25;;;;;;;0.63;0.63;;;19.00;99.90;;;;;;5067544;28;20196;-69
2021/06/06 05:44:51;;;;;;;0.32;0.32;;;18.80;99.90;;;;;;5067672;28;20153;-69
2021/06/06 05:47:17;;;;;;;0.30;0.30;;;18.80;99.90;;;;;;5101883;28;20218;-69
2021/06/06 05:49:43;;;;;;;1.20;0.68;;;18.80;99.90;;;;;;5107900;28;20185;-69
2021/06/06 05:52:09;;;;;;;0.38;0.38;;;18.70;99.90;;;;;;5107816;28;20228;-69
2021/06/06 05:54:35;;;;;;;3.03;0.80;;;18.70;99.90;;;;;;5107957;28;20163;-69
2021/06/06 05:57:01;;;;;;;0.45;0.45;;;18.70;99.90;;;;;;5089747;28;20163;-69
2021/06/06 05:59:27;;;;;;;0.75;0.57;;;18.70;99.90;;;;;;5107741;28;20210;-69
2021/06/06 06:01:53;;;;;;;0.90;0.90;;;18.70;99.90;;;;;;5107841;28;20199;-69
2021/06/06 06:04:19;;;;;;;2.50;0.88;;;18.60;99.90;;;;;;5107904;28;20167;-70
2021/06/06 06:06:45;;;;;;;0.47;0.47;;;18.70;99.90;;;;;;5107735;28;20166;-69
2021/06/06 06:09:10;;;;;;;0.20;0.20;;;18.60;99.90;;;;;;5103663;28;20210;-69
2021/06/06 06:11:36;;;;;;;0.28;0.28;;;18.60;99.90;;;;;;5111365;28;20204;-69
2021/06/06 06:14:02;;;;;;;0.40;0.40;;;18.50;99.90;;;;;;5111560;28;20156;-69
2021/06/06 06:16:32;;;;;;;0.45;0.45;;;18.60;99.90;;;;;;5092882;28;20171;-69
2021/06/06 06:19:01;;;;;;;5.22;0.55;;;18.70;99.90;;;;;;5111378;28;20198;-70
2021/06/06 06:21:29;;;;;;;0.32;0.32;;;18.70;99.90;;;;;;5093328;28;20185;-69
2021/06/06 06:23:55;;;;;;;1.05;0.77;;;18.60;99.90;;;;;;5111325;28;20177;-69
2021/06/06 06:26:22;;;;;;;0.80;0.80;;;18.70;99.90;;;;;;5111520;28;20167;-70
2021/06/06 06:28:48;;;;;;;0.85;0.80;;;18.70;99.90;;;;;;5111357;28;20187;-69
2021/06/06 06:31:16;;;;;;;0.50;0.50;;;18.60;99.90;;;;;;5111301;28;20218;-69
2021/06/06 06:33:43;;;;;;;0.50;0.50;;;18.70;99.90;;;;;;5111314;28;20155;-69
2021/06/06 06:36:16;;;;;;;0.88;0.88;;;18.70;99.90;;;;;;5111258;28;20738;-69
2021/06/06 06:38:42;;;;;;;0.15;0.15;;;18.70;99.90;;;;;;5092866;28;20210;-69
2021/06/06 06:41:09;;;;;;;1.25;1.17;;;18.70;99.90;;;;;;5111322;28;20156;-69
2021/06/06 06:43:35;;;;;;;1.20;0.43;;;18.80;99.90;;;;;;5111247;28;20167;-69
2021/06/06 06:46:00;;;;;;;0.28;0.28;;;18.70;99.90;;;;;;5083068;28;20246;-69
2021/06/06 06:48:29;;;;;;;0.15;0.15;;;18.80;99.90;;;;;;5056949;28;20749;-69
2021/06/06 06:50:56;;;;;;;1.23;1.02;;;18.80;99.90;;;;;;5067046;28;20189;-70
2021/06/06 06:53:23;;;;;;;0.30;0.30;;;18.90;99.90;;;;;;5049345;28;20177;-69
2021/06/06 06:55:49;;;;;;;1.08;0.98;;;19.10;99.90;;;;;;5059330;28;20169;-69
2021/06/06 06:58:16;;;;;;;0.68;0.68;;;19.20;99.90;;;;;;5069221;28;20172;-69
2021/06/06 07:00:44;;;;;;;0.30;0.30;;;19.40;99.90;;;;;;5064201;28;20185;-69
2021/06/06 07:03:15;;;;;;;1.27;0.40;;;19.50;99.90;;;;;;5058742;28;20170;-69
2021/06/06 07:05:41;;;;;;;0.88;0.88;;;19.70;99.90;;;;;;5060799;28;20165;-69
2021/06/06 07:08:11;;;;;;;1.30;0.93;;;19.90;99.90;;;;;;5054220;28;20201;-71
2021/06/06 07:10:39;;;;;;;0.35;0.35;;;20.10;99.90;;;;;;5050210;28;20272;-71
2021/06/06 07:13:06;;;;;;;0.30;0.30;;;20.20;99.90;;;;;;5048673;28;20173;-71
2021/06/06 07:15:32;;;;;;;0.22;0.15;;;20.10;99.90;;;;;;5050193;28;20154;-70
2021/06/06 07:17:58;;;;;;;0.73;0.63;;;20.00;99.90;;;;;;5049926;28;20165;-69
2021/06/06 07:20:28;;;;;;;1.00;0.80;;;20.00;99.90;;;;;;5048854;28;20224;-68
2021/06/06 07:22:55;;;;;;;0.60;0.60;;;20.00;99.90;;;;;;5068691;28;20229;-69
2021/06/06 07:25:23;;;;;;;0.50;0.50;;;20.00;99.90;;;;;;5069811;28;20156;-68
2021/06/06 07:27:51;;;;;;;0.38;0.38;;;19.80;99.90;;;;;;5069749;28;20163;-69
2021/06/06 07:30:22;;;;;;;0.25;0.13;;;19.90;99.90;;;;;;5068261;28;20234;-69
2021/06/06 07:32:49;;;;;;;0.55;0.55;;;19.90;99.90;;;;;;5069677;28;20156;-70
2021/06/06 07:35:20;;;;;;;0.00;0.00;;;19.80;99.90;;;;;;5069509;28;20157;-70
2021/06/06 07:37:46;;;;;;;0.20;0.20;;;19.80;99.90;;;;;;5068179;28;20164;-70
2021/06/06 07:40:15;;;;;;;0.10;0.10;;;19.80;99.90;;;;;;5069303;28;20408;-69
2021/06/06 07:42:41;;;;;;;0.10;0.10;;;19.60;99.90;;;;;;5068129;28;20168;-71
2021/06/06 07:45:09;;;;;;;0.38;0.38;;;19.50;99.90;;;;;;5067995;28;20169;-71
2021/06/06 07:47:35;;;;;;;0.28;0.20;;;19.50;99.90;;;;;;5107404;28;20234;-71
2021/06/06 07:50:02;;;;;;;0.30;0.30;;;19.30;99.90;;;;;;5091188;28;20187;-71
2021/06/06 07:52:28;;;;;;;0.00;0.00;;;19.30;99.90;;;;;;5108861;28;20175;-71
2021/06/06 07:54:54;;;;;;;0.00;0.00;;;19.20;99.90;;;;;;5109521;28;20163;-71
2021/06/06 07:57:20;;;;;;;0.00;0.00;;;19.40;99.90;;;;;;5091626;28;20254;-71
2021/06/06 07:59:46;;;;;;;0.20;0.20;;;19.40;99.90;;;;;;5109406;28;20592;-71
2021/06/06 08:02:11;;;;;;;0.10;0.10;;;19.40;99.90;;;;;;5091288;28;20171;-71
2021/06/06 08:04:37;;;;;;;0.10;0.10;;;19.30;99.90;;;;;;5091182;28;20171;-71
2021/06/06 08:07:04;;;;;;;0.20;0.20;;;19.40;99.90;;;;;;5089589;28;20285;-70
2021/06/06 08:09:30;;;;;;;0.50;0.45;;;19.30;99.90;;;;;;5092231;28;20217;-71
2021/06/06 08:11:56;;;;;;;0.55;0.55;;;19.20;99.90;;;;;;5088738;28;20203;-71
2021/06/06 08:14:22;;;;;;;0.10;0.10;;;19.30;99.90;;;;;;5091695;28;20194;-71
2021/06/06 08:16:48;;;;;;;0.30;0.20;;;19.40;99.90;;;;;;5078685;28;20554;-71
2021/06/06 08:19:13;;;;;;;0.30;0.30;;;19.40;99.90;;;;;;5071541;28;20279;-71
2021/06/06 08:21:44;;;;;;;0.20;0.10;;;19.40;99.90;;;;;;5096766;28;20171;-71
2021/06/06 08:24:11;;;;;;;0.50;0.50;;;19.40;99.90;;;;;;5089016;28;20190;-70
2021/06/06 08:26:37;;;;;;;0.25;0.25;;;19.40;99.90;;;;;;5089634;28;20163;-69
2021/06/06 08:29:05;;;;;;;0.25;0.25;;;19.50;99.90;;;;;;5071150;28;20196;-68
2021/06/06 08:31:35;;;;;;;0.20;0.20;;;19.80;99.90;;;;;;5071359;28;20188;-67
2021/06/06 08:34:01;;;;;;;0.52;0.52;;;19.90;99.90;;;;;;5089515;28;20148;-69
2021/06/06 08:36:30;;;;;;;0.30;0.30;;;19.90;99.90;;;;;;5089347;28;20521;-69
2021/06/06 08:38:58;;;;;;;0.10;0.10;;;19.80;99.90;;;;;;5070886;28;20187;-69
2021/06/06 08:41:31;;;;;;;0.10;0.10;;;19.60;99.90;;;;;;5071190;28;20172;-69
2021/06/06 08:44:15;;;;;;;0.17;0.17;;;19.50;99.90;;;;;;5080847;28;20186;-68
2021/06/06 08:47:10;;;;;;;0.20;0.20;;;19.40;99.90;;;;;;5091100;28;20238;-69
2021/06/06 08:49:38;;;;;;;0.30;0.30;;;19.30;99.90;;;;;;5098328;28;20311;-67
2021/06/06 08:52:46;;;;;;;0.40;0.25;;;19.20;99.90;;;;;;5085274;28;20213;-68
2021/06/06 08:55:28;;;;;;;0.57;0.55;;;19.00;99.90;;;;;;5073354;28;20662;-68
2021/06/06 08:58:19;;;;;;;0.20;0.20;;;18.80;99.90;;;;;;5098497;28;20167;-68
2021/06/06 09:00:55;;;;;;;0.38;0.38;;;18.70;99.90;;;;;;5079414;28;20192;-66
2021/06/06 09:03:26;;;;;;;0.30;0.30;;;18.70;99.90;;;;;;5097542;28;20216;-70
2021/06/06 09:06:03;;;;;;;13.05;0.47;;;18.70;99.90;;;;;;5079981;28;20183;-70
2021/06/06 09:08:33;;;;;;;0.20;0.20;;;18.50;99.90;;;;;;5081183;28;20614;-70
2021/06/06 09:11:06;;;;;;;0.10;0.10;;;18.40;99.90;;;;;;5097612;28;20608;-69
2021/06/06 09:13:32;;;;;;;0.47;0.47;;;18.30;99.90;;;;;;5080583;28;20171;-70
2021/06/06 09:16:20;;;;;;;0.20;0.20;;;18.20;99.90;;;;;;5080639;28;20175;-70
2021/06/06 09:18:57;;;;;;;0.47;0.47;;;18.30;99.90;;;;;;5097469;28;20190;-69
2021/06/06 09:21:24;;;;;;;0.13;0.13;;;18.20;99.90;;;;;;5099018;28;20261;-69
2021/06/06 09:23:51;;;;;;;0.10;0.10;;;18.30;99.90;;;;;;5097901;28;20186;-67
2021/06/06 09:26:17;;;;;;;0.10;0.10;;;18.30;99.90;;;;;;5076410;28;20179;-66
2021/06/06 09:29:20;;;;;;;0.25;0.25;;;18.30;99.90;;;;;;5083237;28;20199;-67
2021/06/06 09:31:46;;;;;;;0.05;0.05;;;18.30;99.90;;;;;;5049512;28;20307;-68
2021/06/06 09:34:22;;;;;;;0.30;0.30;;;18.40;99.90;;;;;;5066372;28;20165;-68
2021/06/06 09:37:02;;;;;;;0.20;0.20;;;18.40;99.90;;;;;;5049603;28;20173;-67
2021/06/06 09:39:34;;;;;;;0.20;0.20;;;18.40;99.90;;;;;;5066298;28;20199;-68
2021/06/06 09:42:00;;;;;;;0.20;0.20;;;18.50;99.90;;;;;;5060210;28;20199;-67
2021/06/06 09:44:31;;;;;;;0.17;0.17;;;18.40;99.90;;;;;;5086866;28;20239;-67
2021/06/06 09:47:06;;;;;;;0.50;0.50;;;18.20;99.90;;;;;;5050919;28;20225;-67
2021/06/06 09:49:46;;;;;;;0.10;0.10;;;18.20;99.90;;;;;;5037904;28;20206;-67
2021/06/06 09:52:17;;;;;;;0.03;0.03;;;18.20;99.90;;;;;;5058003;28;20196;-67
2021/06/06 09:54:50;;;;;;;0.57;0.57;;;18.00;99.90;;;;;;5065422;28;20188;-68
2021/06/06 09:57:32;;;;;;;0.50;0.32;;;18.00;99.90;;;;;;5057208;28;20180;-69
2021/06/06 10:00:25;;;;;;;1.63;1.27;;;17.90;99.90;;;;;;5054997;28;20240;-68
2021/06/06 10:03:04;;;;;;;0.30;0.30;;;18.00;99.90;;;;;;5063405;28;20181;-69
2021/06/06 10:05:34;;;;;;;0.10;0.10;;;18.00;99.90;;;;;;5058154;28;20183;-69
2021/06/06 10:08:06;;;;;;;0.13;0.13;;;17.80;99.90;;;;;;5089157;28;20179;-69
2021/06/06 10:10:36;;;;;;;4.90;3.60;;;17.90;99.90;;;;;;5081320;28;20264;-68
2021/06/06 10:13:07;;;;;;;0.65;0.63;;;18.00;99.90;;;;;;5100986;28;20159;-69
2021/06/06 10:15:49;;;;;;;0.32;0.28;;;18.00;99.90;;;;;;5101490;28;20164;-69
2021/06/06 10:18:21;;;;;;;0.32;0.32;;;18.00;99.90;;;;;;5098633;28;20171;-68
2021/06/06 10:21:16;;;;;;;0.32;0.30;;;18.00;99.90;;;;;;5073460;28;20172;-67
2021/06/06 10:23:51;;;;;;;0.17;0.17;;;17.90;99.90;;;;;;5101066;28;20193;-68
2021/06/06 10:26:51;;;;;;;0.20;0.20;;;17.80;99.90;;;;;;5081165;28;20160;-70
2021/06/06 10:29:36;;;;;;;0.93;0.47;;;17.70;99.90;;;;;;5080268;28;20215;-68
2021/06/06 10:32:16;;;;;;;0.40;0.40;;;17.70;99.90;;;;;;5084128;28;20252;-69
2021/06/06 11:01:48;;;;;;;1.17;1.00;;;18.00;99.90;;;;;;5111601;28;20242;-69
2021/06/06 11:04:27;;;;;;;0.15;0.15;;;18.00;99.90;;;;;;5072595;28;20207;-68
2021/06/06 11:07:05;;;;;;;0.20;0.20;;;18.00;99.90;;;;;;5091147;28;20608;-67
2021/06/06 11:09:35;;;;;;;0.20;0.20;;;18.00;99.90;;;;;;5071923;28;20310;-69
2021/06/06 11:12:12;;;;;;;0.10;0.10;;;18.00;99.90;;;;;;5071452;28;20199;-67
2021/06/06 11:14:49;;;;;;;0.20;0.20;;;18.00;99.90;;;;;;5090497;28;20179;-69
2021/06/06 11:17:30;;;;;;;1.10;0.35;;;18.00;99.90;;;;;;5075099;28;20176;-69
2021/06/06 11:20:29;;;;;;;0.20;0.20;;;18.00;99.90;;;;;;5071772;28;20156;-69
2021/06/06 11:22:56;;;;;;;0.20;0.20;;;18.10;99.90;;;;;;5090227;28;20203;-69
2021/06/06 11:25:40;;;;;;;0.75;0.20;;;18.20;99.90;;;;;;5090563;28;20425;-69
2021/06/06 11:28:39;;;;;;;0.10;0.10;;;18.20;99.90;;;;;;5089380;28;20190;-69
2021/06/06 11:31:29;;;;;;;0.10;0.10;;;18.30;99.90;;;;;;5089975;28;20214;-69
2021/06/06 11:34:03;;;;;;;0.55;0.35;;;18.30;99.90;;;;;;5090529;28;20195;-69
2021/06/06 11:36:39;;;;;;;0.20;0.20;;;18.30;99.90;;;;;;5089228;28;20167;-69
2021/06/06 11:39:16;;;;;;;0.40;0.40;;;18.30;99.90;;;;;;5098000;28;20404;-69
2021/06/06 11:41:47;;;;;;;0.90;0.50;;;18.30;99.90;;;;;;5092170;28;20167;-69
2021/06/06 11:44:25;;;;;;;0.15;0.15;;;18.10;99.90;;;;;;5092328;28;20272;-69
2021/06/06 11:47:17;;;;;;;0.25;0.25;;;18.10;99.90;;;;;;5110459;28;20234;-69
2021/06/06 11:49:57;;;;;;;1.10;0.65;;;18.10;99.90;;;;;;5092773;28;20163;-69
2021/06/06 11:52:44;;;;;;;0.10;0.10;;;18.10;99.90;;;;;;5109770;28;20203;-70
2021/06/06 11:55:24;;;;;;;0.45;0.32;;;18.00;99.90;;;;;;5110376;28;20523;-70
2021/06/06 11:58:13;;;;;;;0.38;0.22;;;18.00;99.90;;;;;;5110596;28;20158;-70
2021/06/06 12:00:41;;;;;;;0.10;0.10;;;18.00;99.90;;;;;;5110083;28;20179;-70
2021/06/06 12:03:08;;;;;;;0.20;0.20;;;18.10;99.90;;;;;;5109620;28;20220;-70
2021/06/06 12:05:34;;;;;;;0.10;0.10;;;18.10;99.90;;;;;;5109427;28;20159;-69
2021/06/06 12:08:11;;;;;;;0.10;0.10;;;18.10;99.90;;;;;;5110271;28;20147;-69
2021/06/06 12:10:48;;;;;;;0.10;0.10;;;18.10;99.90;;;;;;5091919;28;20221;-69
2021/06/06 12:13:22;;;;;;;0.43;0.43;;;17.80;99.90;;;;;;5109265;28;20213;-70
2021/06/06 12:15:48;;;;;;;0.30;0.30;;;17.90;99.90;;;;;;5109737;28;20155;-68
2021/06/06 12:18:24;;;;;;;0.20;0.20;;;17.90;99.90;;;;;;5095540;28;20217;-68
2021/06/06 12:20:59;;;;;;;0.43;0.43;;;18.00;99.90;;;;;;5101315;28;20174;-68
2021/06/06 12:23:34;;;;;;;0.00;0.00;;;18.00;99.90;;;;;;5129681;28;20189;-68
2021/06/06 12:26:13;;;;;;;0.45;0.45;;;18.20;99.90;;;;;;5130347;28;20170;-68
2021/06/06 12:28:45;;;;;;;1.35;0.85;;;18.30;99.90;;;;;;5130212;28;20166;-68
2021/06/06 12:31:23;;;;;;;1.85;0.25;;;18.70;99.90;;;;;;5130215;28;20174;-68
2021/06/06 12:33:50;;;;;;;0.20;0.15;;;18.80;99.90;;;;;;5129554;28;20200;-68
2021/06/06 12:36:30;;;;;;;0.40;0.40;;;18.90;99.90;;;;;;5111632;28;20165;-69
2021/06/06 12:39:01;;;;;;;0.22;0.15;;;19.00;99.90;;;;;;5130495;28;20171;-69
2021/06/06 12:41:29;;;;;;;0.10;0.10;;;19.10;99.90;;;;;;5130550;28;20162;-68
2021/06/06 12:43:58;;;;;;;0.10;0.10;;;19.30;99.90;;;;;;5111550;28;20194;-69
2021/06/06 12:46:26;;;;;;;0.32;0.30;;;19.30;99.90;;;;;;5108328;28;20218;-69
2021/06/06 12:49:06;;;;;;;0.63;0.52;;;19.40;99.90;;;;;;5091747;28;20175;-69
2021/06/06 12:51:42;;;;;;;0.10;0.10;;;19.40;99.90;;;;;;5089460;28;20187;-69
2021/06/06 12:54:41;;;;;;;0.10;0.10;;;19.50;99.90;;;;;;5088827;28;20183;-69
2021/06/06 12:57:14;;;;;;;0.10;0.10;;;19.50;99.90;;;;;;5027580;28;20192;-69
2021/06/06 12:59:41;;;;;;;0.10;0.10;;;19.60;99.90;;;;;;5027640;28;20181;-69
2021/06/06 13:02:10;;;;;;;1.27;0.98;;;19.70;99.90;;;;;;5027437;28;20176;-69
2021/06/06 13:04:36;;;;;;;0.25;0.25;;;19.90;99.90;;;;;;5008122;28;20189;-69
2021/06/06 13:07:03;;;;;;;0.05;0.05;;;20.20;99.90;;;;;;5027042;28;20196;-70
2021/06/06 13:09:45;;;;;;;0.05;0.05;;;20.30;99.90;;;;;;5026886;28;20205;-70
2021/06/06 13:12:10;;;;;;;0.40;0.40;;;20.50;99.90;;;;;;5026700;28;20186;-70
2021/06/06 13:14:48;;;;;;;0.00;0.00;;;20.60;99.90;;;;;;5026557;28;20177;-70
2021/06/06 13:17:43;;;;;;;0.20;0.20;;;21.00;99.90;;;;;;5010239;28;20161;-70
2021/06/06 13:20:36;;;;;;;0.00;0.00;;;21.30;99.90;;;;;;5016211;28;20193;-68
2021/06/06 13:23:11;;;;;;;0.25;0.22;;;20.80;99.90;;;;;;5010269;28;20289;-68
2021/06/06 13:25:48;;;;;;;0.00;0.00;;;20.80;99.90;;;;;;5038085;28;20188;-68
2021/06/06 13:28:22;;;;;;;0.10;0.10;;;21.30;99.90;;;;;;5010228;28;20168;-68
2021/06/06 13:30:49;;;;;;;0.20;0.20;;;21.40;99.90;;;;;;5037693;28;20196;-68
2021/06/06 13:33:17;;;;;;;0.00;0.00;;;21.50;99.90;;;;;;5077577;28;20195;-68
2021/06/06 13:35:44;;;;;;;0.10;0.10;;;21.70;99.90;;;;;;5086873;28;20167;-68
2021/06/06 13:38:11;;;;;;;0.13;0.13;;;21.90;99.90;;;;;;5088358;28;20158;-69